sensor_id;sensor_type;location;lat;lon;timestamp;pressure;altitude;pressure_sealevel;temperature;humidity
20077;BME280;12348;42.710;23.378;2022-09-09T00:01:22;95343.97;;;18.35;100.00
20077;BME280;12348;42.710;23.378;2022-09-09T00:03:58;95335.91;;;18.39;100.00
20077;BME280;12348;42.710;23.378;2022-09-09T00:06:29;95338.88;;;18.34;100.00
20077;BME280;12348;42.710;23.378;2022-09-09T00:09:03;95337.31;;;18.24;100.00
20077;BME280;12348;42.710;23.378;2022-09-09T00:11:40;95332.63;;;18.12;100.00
20077;BME280;12348;42.710;23.378;2022-09-09T00:14:13;95331.22;;;18.06;100.00
20077;BME280;12348;42.710;23.378;2022-09-09T00:16:51;95335.44;;;17.95;100.00
20077;BME280;12348;42.710;23.378;2022-09-09T00:19:23;95338.66;;;17.97;100.00
20077;BME280;12348;42.710;23.378;2022-09-09T00:21:58;95339.31;;;17.94;100.00
20077;BME280;12348;42.710;23.378;2022-09-09T00:24:30;95341.38;;;17.97;100.00
20077;BME280;12348;42.710;23.378;2022-09-09T00:27:02;95329.56;;;17.93;100.00
20077;BME280;12348;42.710;23.378;2022-09-09T00:29:35;95318.25;;;17.74;100.00
20077;BME280;12348;42.710;23.378;2022-09-09T00:32:14;95317.31;;;17.69;100.00
20077;BME280;12348;42.710;23.378;2022-09-09T00:34:47;95313.88;;;17.60;100.00
20077;BME280;12348;42.710;23.378;2022-09-09T00:37:16;95312.44;;;17.54;100.00
20077;BME280;12348;42.710;23.378;2022-09-09T00:39:45;95308.47;;;17.52;100.00
20077;BME280;12348;42.710;23.378;2022-09-09T00:42:15;95307.66;;;17.51;100.00
20077;BME280;12348;42.710;23.378;2022-09-09T00:45:01;95303.69;;;17.49;100.00
20077;BME280;12348;42.710;23.378;2022-09-09T00:47:40;95301.81;;;17.40;100.00
20077;BME280;12348;42.710;23.378;2022-09-09T00:50:21;95293.09;;;17.47;100.00
20077;BME280;12348;42.710;23.378;2022-09-09T00:53:02;95307.06;;;17.45;100.00
20077;BME280;12348;42.710;23.378;2022-09-09T00:55:38;95304.34;;;17.45;100.00
20077;BME280;12348;42.710;23.378;2022-09-09T00:58:08;95301.97;;;17.44;100.00
20077;BME280;12348;42.710;23.378;2022-09-09T01:00:39;95296.97;;;17.46;100.00
20077;BME280;12348;42.710;23.378;2022-09-09T01:03:31;95301.34;;;17.38;100.00
20077;BME280;12348;42.710;23.378;2022-09-09T01:06:13;95305.69;;;17.31;100.00
20077;BME280;12348;42.710;23.378;2022-09-09T01:08:53;95298.81;;;17.25;100.00
20077;BME280;12348;42.710;23.378;2022-09-09T01:11:25;95298.19;;;17.28;100.00
20077;BME280;12348;42.710;23.378;2022-09-09T01:14:16;95295.97;;;17.21;100.00
20077;BME280;12348;42.710;23.378;2022-09-09T01:16:47;95300.75;;;17.24;100.00
20077;BME280;12348;42.710;23.378;2022-09-09T01:19:19;95308.13;;;17.24;100.00
20077;BME280;12348;42.710;23.378;2022-09-09T01:21:56;95307.03;;;17.16;100.00
20077;BME280;12348;42.710;23.378;2022-09-09T01:24:36;95304.94;;;17.22;100.00
20077;BME280;12348;42.710;23.378;2022-09-09T01:27:07;95309.13;;;17.19;100.00
20077;BME280;12348;42.710;23.378;2022-09-09T01:29:36;95299.16;;;17.23;100.00
20077;BME280;12348;42.710;23.378;2022-09-09T01:32:38;95304.31;;;17.16;100.00
20077;BME280;12348;42.710;23.378;2022-09-09T01:35:08;95309.75;;;17.16;100.00
20077;BME280;12348;42.710;23.378;2022-09-09T01:37:37;95304.31;;;17.16;100.00
20077;BME280;12348;42.710;23.378;2022-09-09T01:40:04;95311.88;;;17.10;100.00
20077;BME280;12348;42.710;23.378;2022-09-09T01:42:32;95320.53;;;17.04;100.00
20077;BME280;12348;42.710;23.378;2022-09-09T01:44:59;95322.13;;;17.05;100.00
20077;BME280;12348;42.710;23.378;2022-09-09T01:47:26;95322.94;;;17.05;100.00
20077;BME280;12348;42.710;23.378;2022-09-09T01:49:53;95330.63;;;17.03;100.00
20077;BME280;12348;42.710;23.378;2022-09-09T01:52:20;95321.66;;;17.03;100.00
20077;BME280;12348;42.710;23.378;2022-09-09T01:54:47;95317.97;;;16.99;100.00
20077;BME280;12348;42.710;23.378;2022-09-09T01:57:18;95324.75;;;16.92;100.00
20077;BME280;12348;42.710;23.378;2022-09-09T01:59:58;95326.19;;;16.90;100.00
20077;BME280;12348;42.710;23.378;2022-09-09T02:02:30;95323.41;;;16.99;100.00
20077;BME280;12348;42.710;23.378;2022-09-09T02:05:06;95325.19;;;16.94;100.00
20077;BME280;12348;42.710;23.378;2022-09-09T02:07:40;95323.13;;;16.91;100.00
20077;BME280;12348;42.710;23.378;2022-09-09T02:10:12;95318.50;;;16.92;100.00
20077;BME280;12348;42.710;23.378;2022-09-09T02:12:45;95322.19;;;16.87;100.00
20077;BME280;12348;42.710;23.378;2022-09-09T02:15:18;95318.50;;;16.92;100.00
20077;BME280;12348;42.710;23.378;2022-09-09T02:17:49;95314.34;;;16.86;100.00
20077;BME280;12348;42.710;23.378;2022-09-09T02:20:19;95307.47;;;16.80;100.00
20077;BME280;12348;42.710;23.378;2022-09-09T02:22:49;95295.66;;;16.76;100.00
20077;BME280;12348;42.710;23.378;2022-09-09T02:25:19;95302.03;;;16.80;100.00
20077;BME280;12348;42.710;23.378;2022-09-09T02:27:47;95304.44;;;16.72;100.00
20077;BME280;12348;42.710;23.378;2022-09-09T02:30:17;95303.47;;;16.68;100.00
20077;BME280;12348;42.710;23.378;2022-09-09T02:32:46;95303.19;;;16.70;100.00
20077;BME280;12348;42.710;23.378;2022-09-09T02:35:18;95307.16;;;16.72;100.00
20077;BME280;12348;42.710;23.378;2022-09-09T02:37:46;95304.28;;;16.69;100.00
20077;BME280;12348;42.710;23.378;2022-09-09T02:40:14;95312.31;;;16.74;100.00
20077;BME280;12348;42.710;23.378;2022-09-09T02:42:43;95313.09;;;16.75;100.00
20077;BME280;12348;42.710;23.378;2022-09-09T02:45:11;95320.63;;;16.60;100.00
20077;BME280;12348;42.710;23.378;2022-09-09T02:47:48;95316.81;;;16.53;100.00
20077;BME280;12348;42.710;23.378;2022-09-09T02:50:19;95314.75;;;16.41;100.00
20077;BME280;12348;42.710;23.378;2022-09-09T02:52:58;95321.78;;;16.16;100.00
20077;BME280;12348;42.710;23.378;2022-09-09T02:55:33;95326.41;;;15.89;100.00
20077;BME280;12348;42.710;23.378;2022-09-09T02:58:05;95318.09;;;15.77;100.00
20077;BME280;12348;42.710;23.378;2022-09-09T03:00:33;95319.63;;;15.61;100.00
20077;BME280;12348;42.710;23.378;2022-09-09T03:03:03;95311.31;;;15.57;100.00
20077;BME280;12348;42.710;23.378;2022-09-09T03:05:30;95315.47;;;15.55;100.00
20077;BME280;12348;42.710;23.378;2022-09-09T03:07:57;95324.69;;;15.45;100.00
20077;BME280;12348;42.710;23.378;2022-09-09T03:10:24;95325.31;;;15.42;100.00
20077;BME280;12348;42.710;23.378;2022-09-09T03:12:51;95332.84;;;15.45;100.00
20077;BME280;12348;42.710;23.378;2022-09-09T03:15:17;95328.22;;;15.45;100.00
20077;BME280;12348;42.710;23.378;2022-09-09T03:17:44;95327.13;;;15.46;100.00
20077;BME280;12348;42.710;23.378;2022-09-09T03:20:13;95321.03;;;15.41;100.00
20077;BME280;12348;42.710;23.378;2022-09-09T03:22:40;95333.00;;;15.40;100.00
20077;BME280;12348;42.710;23.378;2022-09-09T03:25:07;95321.66;;;15.38;100.00
20077;BME280;12348;42.710;23.378;2022-09-09T03:27:34;95316.22;;;15.38;100.00
20077;BME280;12348;42.710;23.378;2022-09-09T03:30:01;95314.13;;;15.35;100.00
20077;BME280;12348;42.710;23.378;2022-09-09T03:32:29;95319.88;;;15.33;100.00
20077;BME280;12348;42.710;23.378;2022-09-09T03:34:56;95315.94;;;15.39;100.00
20077;BME280;12348;42.710;23.378;2022-09-09T03:37:25;95326.44;;;15.41;100.00
20077;BME280;12348;42.710;23.378;2022-09-09T03:39:52;95322.63;;;15.42;100.00
20077;BME280;12348;42.710;23.378;2022-09-09T03:42:20;95328.69;;;15.39;100.00
20077;BME280;12348;42.710;23.378;2022-09-09T03:44:47;95328.03;;;15.42;100.00
20077;BME280;12348;42.710;23.378;2022-09-09T03:47:16;95323.44;;;15.42;100.00
20077;BME280;12348;42.710;23.378;2022-09-09T03:49:43;95320.72;;;15.42;100.00
20077;BME280;12348;42.710;23.378;2022-09-09T03:52:10;95327.56;;;15.31;100.00
20077;BME280;12348;42.710;23.378;2022-09-09T03:54:38;95333.44;;;15.33;100.00
20077;BME280;12348;42.710;23.378;2022-09-09T03:57:08;95328.66;;;15.30;100.00
20077;BME280;12348;42.710;23.378;2022-09-09T03:59:35;95327.69;;;15.35;100.00
20077;BME280;12348;42.710;23.378;2022-09-09T04:02:02;95327.06;;;15.38;100.00
20077;BME280;12348;42.710;23.378;2022-09-09T04:04:29;95328.88;;;15.42;100.00
20077;BME280;12348;42.710;23.378;2022-09-09T04:06:55;95341.94;;;15.49;100.00
20077;BME280;12348;42.710;23.378;2022-09-09T04:09:22;95342.63;;;15.55;100.00
20077;BME280;12348;42.710;23.378;2022-09-09T04:11:50;95328.78;;;15.82;100.00
20077;BME280;12348;42.710;23.378;2022-09-09T04:14:18;95337.13;;;16.12;100.00
20077;BME280;12348;42.710;23.378;2022-09-09T04:16:45;95334.38;;;16.64;100.00
20077;BME280;12348;42.710;23.378;2022-09-09T04:19:12;95333.06;;;16.87;100.00
20077;BME280;12348;42.710;23.378;2022-09-09T04:21:40;95327.91;;;17.03;100.00
20077;BME280;12348;42.710;23.378;2022-09-09T04:24:07;95323.34;;;17.54;100.00
20077;BME280;12348;42.710;23.378;2022-09-09T04:26:34;95329.63;;;18.05;100.00
20077;BME280;12348;42.710;23.378;2022-09-09T04:29:03;95327.88;;;18.22;100.00
20077;BME280;12348;42.710;23.378;2022-09-09T04:31:30;95328.88;;;18.38;100.00
20077;BME280;12348;42.710;23.378;2022-09-09T04:33:57;95329.50;;;18.77;100.00
20077;BME280;12348;42.710;23.378;2022-09-09T04:36:27;95329.13;;;19.48;100.00
20077;BME280;12348;42.710;23.378;2022-09-09T04:38:54;95330.03;;;20.14;100.00
20077;BME280;12348;42.710;23.378;2022-09-09T04:41:20;95330.28;;;20.77;100.00
20077;BME280;12348;42.710;23.378;2022-09-09T04:43:47;95340.66;;;21.31;100.00
20077;BME280;12348;42.710;23.378;2022-09-09T04:46:15;95344.31;;;21.51;100.00
20077;BME280;12348;42.710;23.378;2022-09-09T04:48:43;95340.06;;;21.69;100.00
20077;BME280;12348;42.710;23.378;2022-09-09T04:51:12;95333.13;;;21.91;98.95
20077;BME280;12348;42.710;23.378;2022-09-09T04:53:38;95326.59;;;21.80;95.12
20077;BME280;12348;42.710;23.378;2022-09-09T04:56:07;95337.44;;;21.41;96.54
20077;BME280;12348;42.710;23.378;2022-09-09T04:58:35;95329.28;;;21.29;100.00
20077;BME280;12348;42.710;23.378;2022-09-09T05:01:04;95329.97;;;22.24;92.69
20077;BME280;12348;42.710;23.378;2022-09-09T05:03:32;95323.03;;;23.54;81.00
20077;BME280;12348;42.710;23.378;2022-09-09T05:06:03;95322.38;;;24.74;72.40
20077;BME280;12348;42.710;23.378;2022-09-09T05:08:31;95319.34;;;25.20;66.83
20077;BME280;12348;42.710;23.378;2022-09-09T05:10:58;95314.34;;;26.43;62.09
20077;BME280;12348;42.710;23.378;2022-09-09T05:13:25;95317.22;;;26.54;61.12
20077;BME280;12348;42.710;23.378;2022-09-09T05:15:53;95317.06;;;27.23;57.28
20077;BME280;12348;42.710;23.378;2022-09-09T05:18:20;95312.34;;;27.63;56.42
20077;BME280;12348;42.710;23.378;2022-09-09T05:20:49;95321.44;;;27.92;54.59
20077;BME280;12348;42.710;23.378;2022-09-09T05:23:16;95322.69;;;29.11;48.77
20077;BME280;12348;42.710;23.378;2022-09-09T05:25:43;95326.47;;;28.62;49.81
20077;BME280;12348;42.710;23.378;2022-09-09T05:28:12;95317.88;;;28.06;51.49
20077;BME280;12348;42.710;23.378;2022-09-09T05:30:38;95309.69;;;29.01;48.37
20077;BME280;12348;42.710;23.378;2022-09-09T05:33:05;95299.19;;;29.30;47.18
20077;BME280;12348;42.710;23.378;2022-09-09T05:35:34;95303.72;;;29.06;46.68
20077;BME280;12348;42.710;23.378;2022-09-09T05:38:02;95302.53;;;28.96;49.32
20077;BME280;12348;42.710;23.378;2022-09-09T05:40:32;95301.78;;;28.89;48.29
20077;BME280;12348;42.710;23.378;2022-09-09T05:43:00;95302.06;;;29.16;48.21
20077;BME280;12348;42.710;23.378;2022-09-09T05:45:28;95311.81;;;29.42;46.73
20077;BME280;12348;42.710;23.378;2022-09-09T05:47:54;95311.69;;;29.60;46.77
20077;BME280;12348;42.710;23.378;2022-09-09T05:50:22;95315.72;;;30.00;46.59
20077;BME280;12348;42.710;23.378;2022-09-09T05:52:49;95311.91;;;29.28;47.92
20077;BME280;12348;42.710;23.378;2022-09-09T05:55:17;95316.25;;;29.32;48.10
20077;BME280;12348;42.710;23.378;2022-09-09T05:57:48;95303.41;;;29.53;47.29
20077;BME280;12348;42.710;23.378;2022-09-09T06:00:17;95300.97;;;30.10;44.30
20077;BME280;12348;42.710;23.378;2022-09-09T06:02:50;95312.72;;;29.28;46.93
20077;BME280;12348;42.710;23.378;2022-09-09T06:05:17;95315.63;;;30.11;44.86
20077;BME280;12348;42.710;23.378;2022-09-09T06:07:44;95323.38;;;31.29;40.79
20077;BME280;12348;42.710;23.378;2022-09-09T06:10:11;95326.94;;;30.68;43.15
20077;BME280;12348;42.710;23.378;2022-09-09T06:12:41;95324.78;;;30.49;43.78
20077;BME280;12348;42.710;23.378;2022-09-09T06:15:09;95324.75;;;30.87;42.90
20077;BME280;12348;42.710;23.378;2022-09-09T06:17:36;95322.34;;;30.89;43.47
20077;BME280;12348;42.710;23.378;2022-09-09T06:20:05;95325.41;;;30.98;40.92
20077;BME280;12348;42.710;23.378;2022-09-09T06:22:31;95323.09;;;32.48;38.54
20077;BME280;12348;42.710;23.378;2022-09-09T06:24:58;95327.44;;;31.79;37.90
20077;BME280;12348;42.710;23.378;2022-09-09T06:27:27;95335.41;;;32.71;37.05
20077;BME280;12348;42.710;23.378;2022-09-09T06:29:56;95336.50;;;31.59;39.33
20077;BME280;12348;42.710;23.378;2022-09-09T06:32:22;95329.63;;;30.00;42.76
20077;BME280;12348;42.710;23.378;2022-09-09T06:34:49;95333.16;;;30.46;42.79
20077;BME280;12348;42.710;23.378;2022-09-09T06:37:16;95326.50;;;31.89;39.48
20077;BME280;12348;42.710;23.378;2022-09-09T06:39:43;95328.75;;;33.04;36.55
20077;BME280;12348;42.710;23.378;2022-09-09T06:42:10;95308.94;;;33.88;34.72
20077;BME280;12348;42.710;23.378;2022-09-09T06:44:37;95310.41;;;33.60;34.90
20077;BME280;12348;42.710;23.378;2022-09-09T06:47:05;95306.97;;;35.72;31.38
20077;BME280;12348;42.710;23.378;2022-09-09T06:49:32;95304.72;;;35.80;30.32
20077;BME280;12348;42.710;23.378;2022-09-09T06:52:00;95307.44;;;34.61;32.60
20077;BME280;12348;42.710;23.378;2022-09-09T06:54:27;95317.47;;;35.42;30.99
20077;BME280;12348;42.710;23.378;2022-09-09T06:56:54;95327.47;;;34.89;32.11
20077;BME280;12348;42.710;23.378;2022-09-09T06:59:20;95330.56;;;33.67;34.04
20077;BME280;12348;42.710;23.378;2022-09-09T07:01:47;95327.53;;;32.46;36.45
20077;BME280;12348;42.710;23.378;2022-09-09T07:04:15;95329.59;;;32.62;36.30
20077;BME280;12348;42.710;23.378;2022-09-09T07:06:44;95333.63;;;32.80;34.69
20077;BME280;12348;42.710;23.378;2022-09-09T07:09:13;95331.09;;;32.46;35.23
20077;BME280;12348;42.710;23.378;2022-09-09T07:11:41;95328.56;;;32.95;34.92
20077;BME280;12348;42.710;23.378;2022-09-09T07:14:09;95330.22;;;33.29;34.10
20077;BME280;12348;42.710;23.378;2022-09-09T07:16:38;95320.31;;;32.25;35.90
20077;BME280;12348;42.710;23.378;2022-09-09T07:19:04;95318.88;;;32.60;35.11
20077;BME280;12348;42.710;23.378;2022-09-09T07:21:33;95323.22;;;32.41;35.24
20077;BME280;12348;42.710;23.378;2022-09-09T07:24:00;95324.63;;;32.06;36.59
20077;BME280;12348;42.710;23.378;2022-09-09T07:26:29;95313.38;;;31.62;36.65
20077;BME280;12348;42.710;23.378;2022-09-09T07:28:56;95315.72;;;30.41;39.52
20077;BME280;12348;42.710;23.378;2022-09-09T07:31:24;95314.28;;;30.98;38.85
20077;BME280;12348;42.710;23.378;2022-09-09T07:33:52;95315.50;;;31.24;38.03
20077;BME280;12348;42.710;23.378;2022-09-09T07:36:20;95308.28;;;31.57;36.95
20077;BME280;12348;42.710;23.378;2022-09-09T07:38:50;95312.69;;;32.05;36.13
20077;BME280;12348;42.710;23.378;2022-09-09T07:41:19;95308.44;;;32.84;35.17
20077;BME280;12348;42.710;23.378;2022-09-09T07:43:48;95298.38;;;32.03;36.37
20077;BME280;12348;42.710;23.378;2022-09-09T07:46:17;95313.22;;;32.20;36.26
20077;BME280;12348;42.710;23.378;2022-09-09T07:48:45;95321.00;;;32.92;34.84
20077;BME280;12348;42.710;23.378;2022-09-09T07:51:14;95321.44;;;31.80;35.73
20077;BME280;12348;42.710;23.378;2022-09-09T07:53:45;95328.09;;;30.71;38.70
20077;BME280;12348;42.710;23.378;2022-09-09T07:56:14;95320.09;;;31.92;35.93
20077;BME280;12348;42.710;23.378;2022-09-09T07:58:44;95317.88;;;32.90;35.27
20077;BME280;12348;42.710;23.378;2022-09-09T08:01:18;95319.34;;;32.98;34.54
20077;BME280;12348;42.710;23.378;2022-09-09T08:03:46;95311.03;;;33.31;34.12
20077;BME280;12348;42.710;23.378;2022-09-09T08:06:13;95304.84;;;34.38;32.89
20077;BME280;12348;42.710;23.378;2022-09-09T08:08:40;95307.19;;;33.41;33.72
20077;BME280;12348;42.710;23.378;2022-09-09T08:11:11;95310.06;;;33.38;34.22
20077;BME280;12348;42.710;23.378;2022-09-09T08:13:41;95312.56;;;32.56;34.93
20077;BME280;12348;42.710;23.378;2022-09-09T08:16:12;95311.31;;;32.61;35.62
20077;BME280;12348;42.710;23.378;2022-09-09T08:18:39;95317.59;;;32.85;35.23
20077;BME280;12348;42.710;23.378;2022-09-09T08:21:11;95308.56;;;32.14;35.81
20077;BME280;12348;42.710;23.378;2022-09-09T08:23:39;95300.00;;;33.93;33.11
20077;BME280;12348;42.710;23.378;2022-09-09T08:26:08;95296.25;;;33.67;33.68
20077;BME280;12348;42.710;23.378;2022-09-09T08:28:35;95311.88;;;32.72;34.93
20077;BME280;12348;42.710;23.378;2022-09-09T08:31:12;95301.38;;;32.36;36.48
20077;BME280;12348;42.710;23.378;2022-09-09T08:33:39;95301.84;;;32.74;35.28
20077;BME280;12348;42.710;23.378;2022-09-09T08:36:09;95303.72;;;32.61;35.27
20077;BME280;12348;42.710;23.378;2022-09-09T08:38:36;95295.56;;;33.95;34.11
20077;BME280;12348;42.710;23.378;2022-09-09T08:41:15;95295.56;;;32.70;34.66
20077;BME280;12348;42.710;23.378;2022-09-09T08:43:48;95295.06;;;32.75;35.30
20077;BME280;12348;42.710;23.378;2022-09-09T08:46:23;95287.59;;;31.58;37.33
20077;BME280;12348;42.710;23.378;2022-09-09T08:48:56;95293.66;;;31.77;36.70
20077;BME280;12348;42.710;23.378;2022-09-09T08:51:27;95280.06;;;31.55;37.45
20077;BME280;12348;42.710;23.378;2022-09-09T08:53:59;95280.56;;;32.21;36.99
20077;BME280;12348;42.710;23.378;2022-09-09T08:56:30;95286.13;;;32.01;37.04
20077;BME280;12348;42.710;23.378;2022-09-09T08:59:00;95276.09;;;32.27;35.80
20077;BME280;12348;42.710;23.378;2022-09-09T09:01:49;95278.09;;;32.86;36.23
20077;BME280;12348;42.710;23.378;2022-09-09T09:04:29;95280.81;;;33.62;33.95
20077;BME280;12348;42.710;23.378;2022-09-09T09:07:08;95280.97;;;34.91;32.21
20077;BME280;12348;42.710;23.378;2022-09-09T09:09:52;95280.72;;;34.15;32.74
20077;BME280;12348;42.710;23.378;2022-09-09T09:12:26;95278.91;;;34.37;33.10
20077;BME280;12348;42.710;23.378;2022-09-09T09:14:55;95281.44;;;33.17;34.72
20077;BME280;12348;42.710;23.378;2022-09-09T09:17:26;95285.81;;;32.78;35.73
20077;BME280;12348;42.710;23.378;2022-09-09T09:19:55;95276.16;;;30.95;38.42
20077;BME280;12348;42.710;23.378;2022-09-09T09:22:27;95274.25;;;32.60;36.14
20077;BME280;12348;42.710;23.378;2022-09-09T09:25:03;95276.47;;;32.69;36.04
20077;BME280;12348;42.710;23.378;2022-09-09T09:27:34;95276.59;;;31.98;36.70
20077;BME280;12348;42.710;23.378;2022-09-09T09:30:12;95269.09;;;30.22;40.81
20077;BME280;12348;42.710;23.378;2022-09-09T09:32:46;95272.50;;;30.37;41.04
20077;BME280;12348;42.710;23.378;2022-09-09T09:35:15;95271.19;;;30.49;41.60
20077;BME280;12348;42.710;23.378;2022-09-09T09:37:42;95273.25;;;29.62;43.46
20077;BME280;12348;42.710;23.378;2022-09-09T09:40:13;95281.75;;;28.52;45.99
20077;BME280;12348;42.710;23.378;2022-09-09T09:42:48;95263.72;;;29.04;44.36
20077;BME280;12348;42.710;23.378;2022-09-09T09:45:18;95266.50;;;29.59;43.62
20077;BME280;12348;42.710;23.378;2022-09-09T09:48:00;95258.16;;;30.04;42.61
20077;BME280;12348;42.710;23.378;2022-09-09T09:50:28;95259.09;;;29.87;42.71
20077;BME280;12348;42.710;23.378;2022-09-09T09:52:58;95249.06;;;29.55;43.82
20077;BME280;12348;42.710;23.378;2022-09-09T09:55:25;95246.38;;;28.85;46.65
20077;BME280;12348;42.710;23.378;2022-09-09T09:57:52;95245.31;;;29.28;44.81
20077;BME280;12348;42.710;23.378;2022-09-09T10:00:21;95244.19;;;29.21;44.66
20077;BME280;12348;42.710;23.378;2022-09-09T10:02:49;95242.06;;;29.40;44.06
20077;BME280;12348;42.710;23.378;2022-09-09T10:05:20;95244.13;;;29.29;43.95
20077;BME280;12348;42.710;23.378;2022-09-09T10:08:00;95241.94;;;29.02;46.36
20077;BME280;12348;42.710;23.378;2022-09-09T10:10:36;95248.25;;;29.06;46.79
20077;BME280;12348;42.710;23.378;2022-09-09T10:13:12;95250.13;;;29.20;47.53
20077;BME280;12348;42.710;23.378;2022-09-09T10:15:51;95257.25;;;29.77;45.71
20077;BME280;12348;42.710;23.378;2022-09-09T10:18:35;95257.78;;;29.54;46.29
20077;BME280;12348;42.710;23.378;2022-09-09T10:21:13;95261.97;;;29.24;47.37
20077;BME280;12348;42.710;23.378;2022-09-09T10:23:56;95260.59;;;28.91;49.48
20077;BME280;12348;42.710;23.378;2022-09-09T10:26:34;95265.31;;;29.01;48.49
20077;BME280;12348;42.710;23.378;2022-09-09T10:29:32;95262.75;;;28.58;50.24
20077;BME280;12348;42.710;23.378;2022-09-09T10:32:19;95267.16;;;28.34;50.65
20077;BME280;12348;42.710;23.378;2022-09-09T10:35:02;95262.16;;;27.83;54.79
20077;BME280;12348;42.710;23.378;2022-09-09T10:40:28;95267.28;;;27.70;56.00
20077;BME280;12348;42.710;23.378;2022-09-09T10:43:03;95270.81;;;27.74;55.38
20077;BME280;12348;42.710;23.378;2022-09-09T10:45:39;95264.94;;;27.75;55.56
20077;BME280;12348;42.710;23.378;2022-09-09T10:48:23;95265.69;;;28.01;54.68
20077;BME280;12348;42.710;23.378;2022-09-09T10:51:02;95276.78;;;27.87;55.71
20077;BME280;12348;42.710;23.378;2022-09-09T10:53:42;95273.22;;;27.72;57.31
20077;BME280;12348;42.710;23.378;2022-09-09T10:56:16;95277.16;;;27.89;56.16
20077;BME280;12348;42.710;23.378;2022-09-09T10:58:47;95275.88;;;28.36;53.61
20077;BME280;12348;42.710;23.378;2022-09-09T11:01:20;95267.16;;;28.34;53.54
20077;BME280;12348;42.710;23.378;2022-09-09T11:03:53;95269.97;;;28.27;55.10
20077;BME280;12348;42.710;23.378;2022-09-09T11:06:26;95270.47;;;27.90;56.77
20077;BME280;12348;42.710;23.378;2022-09-09T11:08:57;95267.28;;;27.84;56.84
20077;BME280;12348;42.710;23.378;2022-09-09T11:11:30;95267.28;;;27.55;58.78
20077;BME280;12348;42.710;23.378;2022-09-09T11:14:01;95253.06;;;27.57;60.26
20077;BME280;12348;42.710;23.378;2022-09-09T11:16:34;95263.34;;;27.35;61.57
20077;BME280;12348;42.710;23.378;2022-09-09T11:19:13;95259.31;;;26.97;62.78
20077;BME280;12348;42.710;23.378;2022-09-09T11:21:44;95256.16;;;27.02;64.23
20077;BME280;12348;42.710;23.378;2022-09-09T11:24:17;95246.72;;;27.17;62.21
20077;BME280;12348;42.710;23.378;2022-09-09T11:26:51;95242.78;;;27.54;60.77
20077;BME280;12348;42.710;23.378;2022-09-09T11:32:59;95242.97;;;28.49;57.87
20077;BME280;12348;42.710;23.378;2022-09-09T11:35:38;95227.97;;;29.13;53.05
20077;BME280;12348;42.710;23.378;2022-09-09T11:38:18;95229.44;;;28.72;55.90
20077;BME280;12348;42.710;23.378;2022-09-09T11:40:55;95220.34;;;28.68;56.41
20077;BME280;12348;42.710;23.378;2022-09-09T11:43:27;95211.75;;;28.31;58.96
20077;BME280;12348;42.710;23.378;2022-09-09T11:45:55;95198.72;;;28.35;56.66
20077;BME280;12348;42.710;23.378;2022-09-09T11:48:29;95193.53;;;28.37;57.32
20077;BME280;12348;42.710;23.378;2022-09-09T11:50:59;95190.22;;;28.70;56.22
20077;BME280;12348;42.710;23.378;2022-09-09T11:53:26;95188.28;;;28.60;59.01
20077;BME280;12348;42.710;23.378;2022-09-09T11:56:06;95166.38;;;28.84;56.11
20077;BME280;12348;42.710;23.378;2022-09-09T11:58:37;95159.06;;;29.11;54.48
20077;BME280;12348;42.710;23.378;2022-09-09T12:01:40;95177.09;;;29.34;53.64
20077;BME280;12348;42.710;23.378;2022-09-09T12:04:20;95182.75;;;29.19;54.55
20077;BME280;12348;42.710;23.378;2022-09-09T12:06:56;95188.72;;;29.66;52.49
20077;BME280;12348;42.710;23.378;2022-09-09T12:09:31;95183.34;;;29.45;52.39
20077;BME280;12348;42.710;23.378;2022-09-09T12:12:21;95181.78;;;29.44;53.54
20077;BME280;12348;42.710;23.378;2022-09-09T12:15:03;95172.19;;;29.90;51.51
20077;BME280;12348;42.710;23.378;2022-09-09T12:17:44;95167.78;;;29.58;52.71
20077;BME280;12348;42.710;23.378;2022-09-09T12:20:14;95162.47;;;29.75;52.81
20077;BME280;12348;42.710;23.378;2022-09-09T12:23:10;95159.69;;;29.75;51.99
20077;BME280;12348;42.710;23.378;2022-09-09T12:25:49;95164.31;;;29.88;52.11
20077;BME280;12348;42.710;23.378;2022-09-09T12:28:24;95159.81;;;29.60;51.89
20077;BME280;12348;42.710;23.378;2022-09-09T12:30:58;95163.91;;;29.45;54.19
20077;BME280;12348;42.710;23.378;2022-09-09T12:33:33;95158.03;;;29.81;51.87
20077;BME280;12348;42.710;23.378;2022-09-09T12:36:01;95158.06;;;30.11;50.39
20077;BME280;12348;42.710;23.378;2022-09-09T12:38:32;95152.09;;;30.13;50.52
20077;BME280;12348;42.710;23.378;2022-09-09T12:41:01;95149.94;;;30.28;48.86
20077;BME280;12348;42.710;23.378;2022-09-09T12:43:29;95138.03;;;29.59;52.94
20077;BME280;12348;42.710;23.378;2022-09-09T12:45:59;95136.88;;;29.90;51.00
20077;BME280;12348;42.710;23.378;2022-09-09T12:48:33;95136.25;;;29.76;52.21
20077;BME280;12348;42.710;23.378;2022-09-09T12:51:02;95128.09;;;29.61;52.77
20077;BME280;12348;42.710;23.378;2022-09-09T12:53:33;95130.78;;;29.68;52.72
20077;BME280;12348;42.710;23.378;2022-09-09T12:56:02;95126.88;;;29.66;52.72
20077;BME280;12348;42.710;23.378;2022-09-09T12:58:31;95127.56;;;29.74;51.83
20077;BME280;12348;42.710;23.378;2022-09-09T13:01:01;95124.69;;;30.15;50.97
20077;BME280;12348;42.710;23.378;2022-09-09T13:03:28;95120.97;;;30.29;49.69
20077;BME280;12348;42.710;23.378;2022-09-09T13:05:58;95121.56;;;30.71;49.12
20077;BME280;12348;42.710;23.378;2022-09-09T13:08:26;95127.13;;;30.98;47.74
20077;BME280;12348;42.710;23.378;2022-09-09T13:10:56;95125.22;;;30.91;47.98
20077;BME280;12348;42.710;23.378;2022-09-09T13:13:27;95129.28;;;30.86;47.62